Time;durP1;ratioP1;P1;durP2;ratioP2;P2;SDS_P1;SDS_P2;PMS_P1;PMS_P2;Temp;Humidity;BMP_temperature;BMP_pressure;BME280_temperature;BME280_humidity;BME280_pressure;Samples;Min_cycle;Max_cycle;Signal;HPM_P1;HPM_P2
2023/05/16 00:02:25;;;;;;;5.73;5.13;;;;;;;14.53;nan;99222.38;5087234;28;21328;-80
2023/05/16 00:04:51;;;;;;;5.68;5.18;;;;;;;14.49;nan;99214.81;5087181;28;20477;-80
2023/05/16 00:07:17;;;;;;;5.60;5.10;;;;;;;14.45;nan;99214.25;5082162;28;20311;-80
2023/05/16 00:09:42;;;;;;;7.87;4.80;;;;;;;14.45;nan;99224.81;5084067;28;20240;-80
2023/05/16 00:12:08;;;;;;;7.93;5.00;;;;;;;14.45;nan;99210.75;5082917;28;20584;-79
2023/05/16 00:14:35;;;;;;;7.20;5.78;;;;;;;14.47;nan;99222.00;5087324;28;20273;-80
2023/05/16 00:17:00;;;;;;;6.35;5.72;;;;;;;14.49;nan;99220.91;5083091;28;20551;-80
2023/05/16 00:19:28;;;;;;;6.20;5.03;;;;;;;14.51;nan;99218.16;5085705;28;20716;-80
2023/05/16 00:21:54;;;;;;;5.32;4.93;;;;;;;14.52;nan;99212.75;5084044;28;20231;-80
2023/05/16 00:24:19;;;;;;;5.67;4.50;;;;;;;14.53;nan;99213.63;5079252;28;20723;-80
2023/05/16 00:26:45;;;;;;;5.60;5.10;;;;;;;14.54;nan;99210.81;5084483;28;20216;-80
2023/05/16 00:29:10;;;;;;;5.43;4.53;;;;;;;14.58;nan;99208.75;5088765;28;20235;-79
2023/05/16 00:31:35;;;;;;;6.20;5.60;;;;;;;14.61;nan;99213.78;5081167;28;20519;-80
2023/05/16 00:34:01;;;;;;;5.67;5.17;;;;;;;14.67;nan;99207.97;5082364;28;20461;-80
2023/05/16 00:36:27;;;;;;;5.03;4.53;;;;;;;14.70;nan;99207.69;5080558;28;20940;-79
2023/05/16 00:38:52;;;;;;;4.57;4.15;;;;;;;14.73;nan;99207.41;5090151;28;20218;-80
2023/05/16 00:41:19;;;;;;;5.20;4.30;;;;;;;14.72;nan;99218.13;5093092;28;20215;-80
2023/05/16 00:43:45;;;;;;;5.45;4.95;;;;;;;14.73;nan;99209.22;5091457;28;20572;-79
2023/05/16 00:46:11;;;;;;;7.93;4.67;;;;;;;14.72;nan;99215.50;5090923;28;20898;-79
2023/05/16 00:48:36;;;;;;;5.53;4.93;;;;;;;14.70;nan;99206.84;5091900;28;20212;-80
2023/05/16 00:51:01;;;;;;;4.97;4.57;;;;;;;14.73;nan;99217.16;5088202;28;20276;-80
2023/05/16 00:53:27;;;;;;;5.27;4.70;;;;;;;14.76;nan;99216.88;5089960;28;20315;-79
2023/05/16 00:55:54;;;;;;;5.17;4.67;;;;;;;14.76;nan;99207.16;5091735;28;20215;-79
2023/05/16 00:58:21;;;;;;;6.45;4.35;;;;;;;14.78;nan;99207.03;5091963;28;20219;-80
2023/05/16 01:00:47;;;;;;;7.43;4.32;;;;;;;14.77;nan;99206.19;5091122;28;20223;-79
2023/05/16 01:03:12;;;;;;;5.47;4.63;;;;;;;14.76;nan;99201.84;5091965;28;20220;-79
2023/05/16 01:05:37;;;;;;;6.00;5.50;;;;;;;14.72;nan;99205.75;5085893;28;20220;-80
2023/05/16 01:08:04;;;;;;;7.35;5.20;;;;;;;14.71;nan;99209.34;5088988;28;20608;-80
2023/05/16 01:10:38;;;;;;;4.77;4.00;;;;;;;14.70;nan;99206.84;5089236;28;20296;-80
2023/05/16 01:13:43;;;;;;;5.90;5.40;;;;;;;14.67;nan;99202.66;5088750;28;20235;-80
2023/05/16 01:16:13;;;;;;;5.13;4.30;;;;;;;14.63;nan;99203.91;5088274;28;20266;-80
2023/05/16 01:18:51;;;;;;;5.75;5.25;;;;;;;14.66;nan;99202.78;5081979;28;20274;-80
2023/05/16 01:21:49;;;;;;;7.63;4.72;;;;;;;14.68;nan;99200.84;5077637;28;20571;-80
2023/05/16 01:24:22;;;;;;;6.40;5.80;;;;;;;14.70;nan;99194.47;5079153;28;20239;-80
2023/05/16 01:26:49;;;;;;;5.82;4.93;;;;;;;14.69;nan;99200.75;5089435;28;20226;-80
2023/05/16 01:29:15;;;;;;;5.10;4.15;;;;;;;14.67;nan;99200.03;5088859;28;20373;-80
2023/05/16 01:31:40;;;;;;;5.80;5.30;;;;;;;14.68;nan;99201.69;5090407;28;20307;-80
2023/05/16 01:34:06;;;;;;;5.10;4.60;;;;;;;14.66;nan;99203.63;5085487;28;20652;-80
2023/05/16 01:36:47;;;;;;;5.27;4.73;;;;;;;14.68;nan;99193.75;5086834;28;20265;-80
2023/05/16 01:39:24;;;;;;;6.68;4.97;;;;;;;14.66;nan;99200.16;5086090;28;20508;-80
2023/05/16 01:42:00;;;;;;;6.10;5.50;;;;;;;14.65;nan;99204.59;5088707;28;20298;-80
2023/05/16 01:44:42;;;;;;;6.28;5.30;;;;;;;14.62;nan;99199.59;5084937;28;20230;-80
2023/05/16 01:47:11;;;;;;;5.82;5.25;;;;;;;14.63;nan;99201.25;5086016;28;20753;-80
2023/05/16 01:50:05;;;;;;;6.47;5.88;;;;;;;14.62;nan;99206.69;5086942;28;20265;-80
2023/05/16 01:52:37;;;;;;;8.95;5.30;;;;;;;14.58;nan;99203.44;5087091;28;20541;-80
2023/05/16 01:55:03;;;;;;;6.10;5.35;;;;;;;14.59;nan;99205.16;5084622;28;20224;-80
2023/05/16 01:57:29;;;;;;;6.07;5.15;;;;;;;14.62;nan;99199.59;5089231;28;20212;-80
2023/05/16 01:59:57;;;;;;;7.33;5.57;;;;;;;14.66;nan;99203.63;5102846;28;20234;-80
2023/05/16 02:02:22;;;;;;;6.72;5.80;;;;;;;14.68;nan;99200.84;5086741;28;20524;-80
2023/05/16 02:04:49;;;;;;;6.78;6.07;;;;;;;14.71;nan;99211.16;5088776;28;20930;-79
2023/05/16 02:07:14;;;;;;;6.45;5.78;;;;;;;14.70;nan;99206.84;5085230;28;20711;-79
2023/05/16 02:09:40;;;;;;;6.10;5.50;;;;;;;14.69;nan;99203.38;5087250;28;20238;-80
2023/05/16 02:12:06;;;;;;;7.60;6.90;;;;;;;14.72;nan;99208.41;5053622;22;20246;-79
2023/05/16 02:14:32;;;;;;;7.78;6.53;;;;;;;14.74;nan;99206.47;5014268;28;20224;-80
2023/05/16 02:16:58;;;;;;;6.60;6.00;;;;;;;14.74;nan;99203.81;5039159;28;20221;-79
2023/05/16 02:19:23;;;;;;;9.87;7.67;;;;;;;14.72;nan;99208.41;5044677;28;20232;-80
2023/05/16 02:21:50;;;;;;;6.40;5.80;;;;;;;14.74;nan;99209.09;5010511;28;20220;-79
2023/05/16 02:24:16;;;;;;;7.80;6.50;;;;;;;14.76;nan;99208.97;5005760;28;20278;-79
2023/05/16 02:26:41;;;;;;;5.80;5.20;;;;;;;14.79;nan;99204.22;5026462;28;20225;-79
2023/05/16 02:29:08;;;;;;;10.60;7.87;;;;;;;14.80;nan;99213.84;5043318;28;20932;-80
2023/05/16 02:31:33;;;;;;;7.13;6.35;;;;;;;14.79;nan;99211.31;5040221;28;20231;-80
2023/05/16 02:33:59;;;;;;;6.60;5.90;;;;;;;14.76;nan;99204.50;5022720;28;20585;-80
2023/05/16 02:36:26;;;;;;;9.98;8.82;;;;;;;14.77;nan;99200.91;5032337;28;20506;-80
2023/05/16 02:38:52;;;;;;;8.95;8.00;;;;;;;14.75;nan;99200.19;5040390;28;20285;-80
2023/05/16 02:41:17;;;;;;;8.63;7.73;;;;;;;14.73;nan;99196.84;5024243;28;20696;-79
2023/05/16 02:43:43;;;;;;;8.60;7.80;;;;;;;14.69;nan;99195.44;5026676;28;20216;-80
2023/05/16 02:46:22;;;;;;;9.07;7.80;;;;;;;14.66;nan;99193.06;5025672;28;20220;-80
2023/05/16 02:48:49;;;;;;;9.95;7.88;;;;;;;14.64;nan;99192.38;5043900;28;20225;-80
2023/05/16 02:51:16;;;;;;;10.57;9.30;;;;;;;14.64;nan;99186.25;5024893;28;20320;-81
2023/05/16 02:53:41;;;;;;;11.90;9.70;;;;;;;14.62;nan;99190.81;5025322;28;20311;-80
2023/05/16 02:56:07;;;;;;;12.77;10.30;;;;;;;14.58;nan;99190.25;5047425;28;20325;-81
2023/05/16 02:58:33;;;;;;;9.75;8.60;;;;;;;14.56;nan;99189.56;5043471;28;20214;-81
2023/05/16 03:00:59;;;;;;;14.20;11.90;;;;;;;14.50;nan;99200.59;5048825;28;20230;-80
2023/05/16 03:03:25;;;;;;;15.13;11.73;;;;;;;14.45;nan;99192.25;5029999;28;20250;-81
2023/05/16 03:05:51;;;;;;;15.75;11.65;;;;;;;14.41;nan;99196.97;5031302;28;20214;-80
2023/05/16 03:08:16;;;;;;;15.20;11.90;;;;;;;14.39;nan;99204.16;5028688;28;20909;-81
2023/05/16 03:10:42;;;;;;;12.93;10.90;;;;;;;14.38;nan;99200.69;5048398;28;20313;-81
2023/05/16 03:13:07;;;;;;;17.57;13.30;;;;;;;14.35;nan;99203.59;5046951;28;20423;-83
2023/05/16 03:15:32;;;;;;;14.97;12.30;;;;;;;14.33;nan;99202.06;5027602;28;20304;-81
2023/05/16 03:17:58;;;;;;;15.20;13.00;;;;;;;14.31;nan;99201.34;5045633;28;20216;-82
2023/05/16 03:20:23;;;;;;;17.07;13.57;;;;;;;14.28;nan;99210.38;5028577;28;20335;-81
2023/05/16 03:22:49;;;;;;;18.13;15.47;;;;;;;14.24;nan;99214.25;5044557;28;20213;-82
2023/05/16 03:25:14;;;;;;;20.77;15.27;;;;;;;14.23;nan;99212.59;5043744;28;20248;-81
2023/05/16 03:27:40;;;;;;;19.00;13.33;;;;;;;14.23;nan;99209.97;5043538;28;20235;-80
2023/05/16 03:30:08;;;;;;;21.00;15.50;;;;;;;14.23;nan;99215.25;5044924;28;20260;-81
2023/05/16 03:32:33;;;;;;;20.03;16.07;;;;;;;14.21;nan;99219.81;5027739;28;20476;-80
2023/05/16 03:34:59;;;;;;;21.00;17.33;;;;;;;14.21;nan;99218.97;5041038;28;20483;-80
2023/05/16 03:37:25;;;;;;;20.23;15.70;;;;;;;14.19;nan;99216.44;5023377;28;20212;-81
2023/05/16 03:39:51;;;;;;;22.80;15.60;;;;;;;14.18;nan;99222.72;5043311;28;20214;-80
2023/05/16 03:42:17;;;;;;;19.00;14.03;;;;;;;14.16;nan;99217.56;5029176;28;20959;-81
2023/05/16 03:44:43;;;;;;;21.05;15.32;;;;;;;14.14;nan;99221.28;5047425;28;20315;-79
2023/05/16 03:47:08;;;;;;;22.23;16.50;;;;;;;14.13;nan;99224.91;5043885;28;20709;-80
2023/05/16 03:49:35;;;;;;;17.80;13.83;;;;;;;14.08;nan;99222.66;5045726;28;20347;-79
2023/05/16 03:52:00;;;;;;;21.48;15.15;;;;;;;14.05;nan;99227.34;5043533;28;20318;-79
2023/05/16 03:54:26;;;;;;;21.10;15.87;;;;;;;14.03;nan;99229.28;5040791;28;20314;-80
2023/05/16 03:56:51;;;;;;;20.03;15.67;;;;;;;14.01;nan;99225.94;5043225;28;20993;-79
2023/05/16 03:59:17;;;;;;;19.87;14.90;;;;;;;14.00;nan;99226.91;5043300;28;20521;-80
2023/05/16 04:01:42;;;;;;;24.07;14.80;;;;;;;13.96;nan;99223.69;5024550;28;20225;-80
2023/05/16 04:04:07;;;;;;;22.13;15.80;;;;;;;13.97;nan;99230.63;5043003;28;20331;-79
2023/05/16 04:06:33;;;;;;;24.20;16.97;;;;;;;13.93;nan;99238.00;5022124;28;20221;-79
2023/05/16 04:08:58;;;;;;;25.30;15.07;;;;;;;13.92;nan;99241.56;5043921;28;20284;-80
2023/05/16 04:11:25;;;;;;;22.30;16.27;;;;;;;13.90;nan;99245.31;5044235;28;20332;-81
2023/05/16 04:13:52;;;;;;;25.90;16.77;;;;;;;13.86;nan;99239.44;5042637;28;20213;-80
2023/05/16 04:16:18;;;;;;;19.83;14.85;;;;;;;13.83;nan;99245.00;5024217;28;20316;-80
2023/05/16 04:18:43;;;;;;;20.97;14.20;;;;;;;13.82;nan;99245.94;5045868;28;20296;-80
2023/05/16 04:21:10;;;;;;;20.90;16.17;;;;;;;13.82;nan;99245.94;5044002;28;20329;-80
2023/05/16 04:23:35;;;;;;;22.02;15.93;;;;;;;13.81;nan;99244.28;5043371;28;20243;-80
2023/05/16 04:26:03;;;;;;;19.57;15.23;;;;;;;13.81;nan;99252.19;5041441;28;20886;-80
2023/05/16 04:28:29;;;;;;;20.25;15.73;;;;;;;13.81;nan;99254.84;5042996;28;20621;-81
2023/05/16 04:30:54;;;;;;;21.77;15.07;;;;;;;13.79;nan;99259.41;5046042;28;20225;-80
2023/05/16 04:33:19;;;;;;;18.20;13.60;;;;;;;13.79;nan;99256.75;5044385;28;20722;-80
2023/05/16 04:35:45;;;;;;;20.33;17.00;;;;;;;13.80;nan;99261.09;5047432;28;20478;-81
2023/05/16 04:38:10;;;;;;;18.80;15.10;;;;;;;13.80;nan;99255.81;5046254;28;20266;-80
2023/05/16 04:40:36;;;;;;;18.53;15.77;;;;;;;13.79;nan;99253.28;5028385;28;20260;-82
2023/05/16 04:43:01;;;;;;;21.47;15.50;;;;;;;13.76;nan;99259.66;5050363;28;20624;-80
2023/05/16 04:45:27;;;;;;;21.70;15.80;;;;;;;13.75;nan;99265.91;5048353;28;20536;-80
2023/05/16 04:47:52;;;;;;;22.93;16.03;;;;;;;13.73;nan;99265.19;5013006;28;20747;-80
2023/05/16 04:50:17;;;;;;;20.00;15.37;;;;;;;13.72;nan;99260.88;5046357;28;20748;-80
2023/05/16 04:52:43;;;;;;;17.63;14.43;;;;;;;13.72;nan;99264.34;5027428;28;20578;-80
2023/05/16 04:55:09;;;;;;;25.40;13.67;;;;;;;13.74;nan;99266.84;5028821;28;20221;-80
2023/05/16 04:57:35;;;;;;;20.08;13.60;;;;;;;13.77;nan;99263.13;5047868;28;20224;-81
2023/05/16 05:00:00;;;;;;;21.60;15.43;;;;;;;13.78;nan;99263.00;5026986;28;20697;-80
2023/05/16 05:02:26;;;;;;;21.40;15.37;;;;;;;13.80;nan;99266.38;5007892;28;20315;-80
2023/05/16 05:04:51;;;;;;;22.20;14.80;;;;;;;13.80;nan;99269.00;5040849;28;20221;-80
2023/05/16 05:07:17;;;;;;;23.10;14.87;;;;;;;13.79;nan;99269.13;5044776;28;20284;-80
2023/05/16 05:09:42;;;;;;;24.17;17.40;;;;;;;13.71;nan;99272.38;5045574;28;20221;-81
2023/05/16 05:12:08;;;;;;;26.07;16.67;;;;;;;13.66;nan;99279.84;5057292;28;20267;-80
2023/05/16 05:14:34;;;;;;;26.33;18.80;;;;;;;13.62;nan;99276.63;5065957;28;20224;-81
2023/05/16 05:17:00;;;;;;;27.27;20.23;;;;;;;13.63;nan;99280.09;5066794;28;20246;-80
2023/05/16 05:19:26;;;;;;;29.15;18.70;;;;;;;13.63;nan;99274.81;5059796;28;20247;-80
2023/05/16 05:21:51;;;;;;;29.33;19.50;;;;;;;13.62;nan;99278.44;5063417;28;20277;-80
2023/05/16 05:24:16;;;;;;;26.93;17.83;;;;;;;13.60;nan;99275.91;5061551;28;20221;-80
2023/05/16 05:26:42;;;;;;;27.77;17.27;;;;;;;13.58;nan;99282.25;5064364;28;20283;-80
2023/05/16 05:29:07;;;;;;;29.10;17.17;;;;;;;13.53;nan;99282.66;5064729;28;20209;-80
2023/05/16 05:31:33;;;;;;;24.07;16.53;;;;;;;13.49;nan;99283.84;5064447;28;20875;-80
2023/05/16 05:33:59;;;;;;;26.47;17.03;;;;;;;13.47;nan;99283.13;5065680;28;20224;-80
2023/05/16 05:36:25;;;;;;;34.08;20.80;;;;;;;13.48;nan;99283.03;5062411;28;20466;-80
2023/05/16 05:38:50;;;;;;;28.60;17.47;;;;;;;13.47;nan;99284.00;5064524;28;20294;-80
2023/05/16 05:41:16;;;;;;;24.43;17.30;;;;;;;13.45;nan;99287.72;5060052;28;20274;-79
2023/05/16 05:43:41;;;;;;;32.83;18.30;;;;;;;13.42;nan;99293.22;5059495;28;20688;-80
2023/05/16 05:46:07;;;;;;;26.90;16.83;;;;;;;13.39;nan;99289.03;5062805;28;20221;-79
2023/05/16 05:48:33;;;;;;;30.25;18.80;;;;;;;13.37;nan;99288.34;5063031;28;20212;-80
2023/05/16 05:50:58;;;;;;;23.10;15.50;;;;;;;13.37;nan;99298.88;5060979;28;20266;-79
2023/05/16 05:53:24;;;;;;;34.60;18.00;;;;;;;13.37;nan;99296.25;5062383;28;20577;-80
2023/05/16 05:55:50;;;;;;;24.00;17.10;;;;;;;13.39;nan;99302.22;5062220;28;20250;-80
2023/05/16 05:58:17;;;;;;;24.50;15.00;;;;;;;13.36;nan;99299.81;5063117;28;20703;-79
2023/05/16 06:00:42;;;;;;;23.42;16.45;;;;;;;13.37;nan;99298.06;5063180;28;20494;-80
2023/05/16 06:03:08;;;;;;;26.80;16.37;;;;;;;13.33;nan;99300.06;5065784;28;20215;-79
2023/05/16 06:05:33;;;;;;;22.97;16.30;;;;;;;13.29;nan;99298.66;5062389;28;20247;-80
2023/05/16 06:07:58;;;;;;;24.73;15.83;;;;;;;13.24;nan;99299.00;5066576;28;20216;-80
2023/05/16 06:10:24;;;;;;;23.87;15.70;;;;;;;13.22;nan;99297.44;5064969;28;20234;-80
2023/05/16 06:12:49;;;;;;;27.20;16.00;;;;;;;13.23;nan;99302.59;5062423;28;20218;-80
2023/05/16 06:15:15;;;;;;;24.97;15.60;;;;;;;13.24;nan;99306.06;5065788;28;20804;-80
2023/05/16 06:17:40;;;;;;;30.83;15.67;;;;;;;13.23;nan;99309.63;5071723;28;20305;-80
2023/05/16 06:20:07;;;;;;;25.70;15.80;;;;;;;13.23;nan;99307.88;5072059;28;20415;-80
2023/05/16 06:22:32;;;;;;;30.05;16.15;;;;;;;13.20;nan;99304.63;5071369;28;20460;-80
2023/05/16 06:24:57;;;;;;;27.63;18.10;;;;;;;13.21;nan;99308.94;5071950;28;20269;-79
2023/05/16 06:27:23;;;;;;;19.97;13.73;;;;;;;13.23;nan;99315.78;5068805;28;20273;-79
2023/05/16 06:29:48;;;;;;;24.27;16.30;;;;;;;13.24;nan;99317.44;5067863;28;20243;-79
2023/05/16 06:32:14;;;;;;;24.60;16.80;;;;;;;13.26;nan;99320.00;5068601;28;20221;-79
2023/05/16 06:34:39;;;;;;;28.13;16.70;;;;;;;13.28;nan;99320.69;5068484;28;20829;-80
2023/05/16 06:37:04;;;;;;;23.97;17.97;;;;;;;13.28;nan;99318.94;5072598;28;20236;-79
2023/05/16 06:39:30;;;;;;;24.67;14.90;;;;;;;13.27;nan;99316.41;5073230;28;20235;-80
2023/05/16 06:41:55;;;;;;;27.70;15.90;;;;;;;13.27;nan;99317.22;5068534;28;20593;-80
2023/05/16 06:44:22;;;;;;;32.00;16.87;;;;;;;13.27;nan;99324.31;5071102;28;20719;-80
2023/05/16 06:46:47;;;;;;;24.02;15.63;;;;;;;13.28;nan;99318.06;5072421;28;20212;-79
2023/05/16 06:49:13;;;;;;;30.50;15.60;;;;;;;13.29;nan;99319.75;5070013;28;20231;-80
2023/05/16 06:51:39;;;;;;;27.93;16.50;;;;;;;13.28;nan;99316.28;5069520;28;20277;-79
2023/05/16 06:54:04;;;;;;;30.00;17.75;;;;;;;13.31;nan;99320.47;5071610;28;20221;-79
2023/05/16 06:56:30;;;;;;;30.17;15.33;;;;;;;13.30;nan;99324.06;5069589;28;20725;-79
2023/05/16 06:58:55;;;;;;;25.30;15.03;;;;;;;13.30;nan;99325.88;5071054;28;20217;-79
2023/05/16 07:01:21;;;;;;;25.27;16.40;;;;;;;13.26;nan;99322.66;5071463;28;20217;-80
2023/05/16 07:03:46;;;;;;;31.17;18.90;;;;;;;13.26;nan;99327.91;5068913;28;20484;-83
2023/05/16 07:06:12;;;;;;;18.77;14.93;;;;;;;13.21;nan;99327.41;5075540;28;20216;-83
2023/05/16 07:08:37;;;;;;;23.73;16.23;;;;;;;13.21;nan;99330.06;5072296;28;20287;-82
2023/05/16 07:11:02;;;;;;;27.43;16.83;;;;;;;13.22;nan;99323.81;5068925;28;20236;-81
2023/05/16 07:13:28;;;;;;;29.57;16.50;;;;;;;13.24;nan;99332.44;5078026;28;20284;-82
2023/05/16 07:15:53;;;;;;;25.73;15.50;;;;;;;13.23;nan;99328.97;5080529;28;20227;-82
2023/05/16 07:18:18;;;;;;;24.50;14.70;;;;;;;13.25;nan;99334.09;5075502;28;20235;-82
2023/05/16 07:20:44;;;;;;;26.17;16.57;;;;;;;13.27;nan;99340.13;5070872;28;20224;-81
2023/05/16 07:23:10;;;;;;;24.10;15.40;;;;;;;13.31;nan;99338.91;5069532;28;20216;-81
2023/05/16 07:25:35;;;;;;;22.77;16.90;;;;;;;13.33;nan;99347.56;5071879;28;20809;-81
2023/05/16 07:28:01;;;;;;;20.80;15.60;;;;;;;13.35;nan;99350.09;5068720;28;20555;-81
2023/05/16 07:30:27;;;;;;;25.40;15.13;;;;;;;13.37;nan;99348.19;5068342;28;20244;-81
2023/05/16 07:32:53;;;;;;;26.60;17.33;;;;;;;13.40;nan;99354.03;5069633;28;20481;-81
2023/05/16 07:35:18;;;;;;;23.07;16.03;;;;;;;13.44;nan;99355.44;5072519;28;20220;-82
2023/05/16 07:37:43;;;;;;;31.43;17.60;;;;;;;13.46;nan;99353.53;5068281;28;20215;-82
2023/05/16 07:40:10;;;;;;;26.77;15.07;;;;;;;13.45;nan;99357.16;5068815;28;20220;-82
2023/05/16 07:42:35;;;;;;;19.92;13.30;;;;;;;13.43;nan;99364.34;5080901;28;20258;-81
2023/05/16 07:45:01;;;;;;;24.33;14.60;;;;;;;13.40;nan;99363.75;5066726;28;20220;-83
2023/05/16 07:47:27;;;;;;;26.57;15.40;;;;;;;13.40;nan;99364.59;5066052;28;20250;-82
2023/05/16 07:49:52;;;;;;;27.30;15.23;;;;;;;13.43;nan;99360.88;5068382;28;20222;-81
2023/05/16 07:52:18;;;;;;;23.73;16.40;;;;;;;13.45;nan;99366.88;5065752;28;20307;-83
2023/05/16 07:54:46;;;;;;;27.97;15.20;;;;;;;13.45;nan;99367.72;5067563;28;20221;-81
2023/05/16 07:57:15;;;;;;;29.30;15.43;;;;;;;13.45;nan;99372.16;5069517;28;20506;-82
2023/05/16 07:59:41;;;;;;;29.63;16.55;;;;;;;13.46;nan;99369.38;5070488;28;21531;-82
2023/05/16 08:02:07;;;;;;;27.48;16.08;;;;;;;13.47;nan;99371.06;5067804;28;20316;-81
2023/05/16 08:04:32;;;;;;;24.60;16.30;;;;;;;13.48;nan;99371.91;5069377;28;20288;-81
2023/05/16 08:06:58;;;;;;;23.60;14.90;;;;;;;13.45;nan;99365.06;5070729;28;20295;-81
2023/05/16 08:09:23;;;;;;;26.60;17.00;;;;;;;13.47;nan;99370.19;5067988;28;20212;-81
2023/05/16 08:11:49;;;;;;;21.60;14.50;;;;;;;13.46;nan;99371.19;5088538;22;20237;-81
2023/05/16 08:14:14;;;;;;;24.03;13.40;;;;;;;13.47;nan;99375.47;5025766;28;20224;-83
2023/05/16 08:16:40;;;;;;;21.73;13.20;;;;;;;13.49;nan;99376.22;5034035;28;20635;-80
2023/05/16 08:19:06;;;;;;;28.73;15.60;;;;;;;13.53;nan;99371.50;5045841;28;20243;-81
2023/05/16 08:21:31;;;;;;;20.20;12.50;;;;;;;13.54;nan;99376.69;5045097;28;20993;-81
2023/05/16 08:23:57;;;;;;;25.20;12.97;;;;;;;13.53;nan;99376.78;5042093;28;20231;-81
2023/05/16 08:26:22;;;;;;;25.20;14.80;;;;;;;13.54;nan;99370.56;5039397;28;20240;-81
2023/05/16 08:28:48;;;;;;;18.00;13.50;;;;;;;13.56;nan;99373.94;5040569;28;20225;-81
2023/05/16 08:31:14;;;;;;;19.60;13.70;;;;;;;13.56;nan;99374.78;5039021;28;20233;-80
2023/05/16 08:33:39;;;;;;;22.57;13.33;;;;;;;13.60;nan;99376.19;5038966;28;20632;-81
2023/05/16 08:36:05;;;;;;;23.77;14.30;;;;;;;13.66;nan;99382.78;5039342;28;20493;-81
2023/05/16 08:38:30;;;;;;;20.40;13.50;;;;;;;13.69;nan;99379.88;5040236;28;20246;-80
2023/05/16 08:40:56;;;;;;;17.90;13.53;;;;;;;13.71;nan;99380.59;5038072;28;20256;-81
2023/05/16 08:43:21;;;;;;;21.87;13.63;;;;;;;13.73;nan;99381.31;5040092;28;20632;-81
2023/05/16 08:45:47;;;;;;;21.47;12.70;;;;;;;13.76;nan;99383.72;5040001;28;20221;-80
2023/05/16 08:48:14;;;;;;;20.13;12.90;;;;;;;13.76;nan;99375.78;5039095;28;20233;-81
2023/05/16 08:50:41;;;;;;;27.15;13.90;;;;;;;13.76;nan;99377.59;5035481;28;20212;-80
2023/05/16 08:53:08;;;;;;;20.30;13.30;;;;;;;13.69;nan;99380.75;5039602;28;20838;-80
2023/05/16 08:55:35;;;;;;;19.98;13.02;;;;;;;13.66;nan;99382.78;5038234;28;20225;-80
2023/05/16 08:58:00;;;;;;;26.92;14.80;;;;;;;13.64;nan;99387.34;5036342;28;20229;-80
2023/05/16 09:00:27;;;;;;;21.17;14.67;;;;;;;13.59;nan;99379.78;5033818;28;20230;-79
2023/05/16 09:02:52;;;;;;;20.88;12.50;;;;;;;13.56;nan;99382.69;5034765;28;21006;-80
2023/05/16 09:05:18;;;;;;;23.73;16.97;;;;;;;13.58;nan;99377.28;5033960;28;20425;-80
2023/05/16 09:07:45;;;;;;;24.05;15.27;;;;;;;13.58;nan;99387.81;5034781;28;21027;-80
2023/05/16 09:10:11;;;;;;;21.10;14.57;;;;;;;13.56;nan;99381.84;5035280;28;20260;-80
2023/05/16 09:12:38;;;;;;;21.08;14.65;;;;;;;13.57;nan;99375.59;5036091;28;20575;-80
2023/05/16 09:15:06;;;;;;;24.15;14.15;;;;;;;13.60;nan;99378.00;5038578;28;20224;-80
2023/05/16 09:17:43;;;;;;;23.13;14.15;;;;;;;13.62;nan;99381.34;5039825;28;20216;-80
2023/05/16 09:20:11;;;;;;;15.32;11.25;;;;;;;13.60;nan;99380.63;5042162;28;20215;-80
2023/05/16 09:22:37;;;;;;;23.92;14.50;;;;;;;13.60;nan;99388.53;5036641;28;20856;-80
2023/05/16 09:25:03;;;;;;;24.60;15.77;;;;;;;13.57;nan;99388.78;5036486;28;20306;-79
2023/05/16 09:27:30;;;;;;;27.83;14.85;;;;;;;13.56;nan;99390.59;5037268;28;20209;-80
2023/05/16 09:29:57;;;;;;;23.48;13.98;;;;;;;13.56;nan;99385.31;5037979;28;20201;-80
2023/05/16 09:32:23;;;;;;;24.40;13.23;;;;;;;13.56;nan;99387.97;5032404;28;20232;-79
2023/05/16 09:34:50;;;;;;;24.50;14.60;;;;;;;13.57;nan;99391.44;5039898;28;20458;-79
2023/05/16 09:37:16;;;;;;;26.85;14.73;;;;;;;13.60;nan;99386.75;5041990;28;20751;-80
2023/05/16 09:39:50;;;;;;;19.30;12.15;;;;;;;13.60;nan;99385.91;5035197;28;20237;-80
2023/05/16 09:42:18;;;;;;;27.27;13.43;;;;;;;13.63;nan;99397.06;5030954;28;20213;-79
2023/05/16 09:44:51;;;;;;;21.23;14.88;;;;;;;13.66;nan;99388.91;5034597;28;20228;-80
2023/05/16 09:47:18;;;;;;;24.35;14.32;;;;;;;13.77;nan;99387.19;5035501;28;20217;-81
2023/05/16 09:49:45;;;;;;;20.15;13.85;;;;;;;13.85;nan;99379.50;5037112;28;20688;-80
2023/05/16 09:52:11;;;;;;;22.90;13.68;;;;;;;13.93;nan;99383.22;5034546;28;20217;-79
2023/05/16 09:54:37;;;;;;;23.33;13.75;;;;;;;14.02;nan;99386.91;5035878;28;20268;-80
2023/05/16 09:57:03;;;;;;;21.67;13.97;;;;;;;14.06;nan;99390.13;5034893;28;20224;-80
2023/05/16 09:59:29;;;;;;;20.20;13.50;;;;;;;14.11;nan;99386.13;5036374;28;20274;-79
2023/05/16 10:01:58;;;;;;;23.90;13.93;;;;;;;14.17;nan;99385.63;5039202;28;20262;-80
2023/05/16 10:04:23;;;;;;;27.85;15.57;;;;;;;14.22;nan;99385.25;5038024;28;20408;-80
2023/05/16 10:06:51;;;;;;;20.30;13.93;;;;;;;14.20;nan;99384.53;5042789;28;20248;-80
2023/05/16 10:09:17;;;;;;;20.33;13.90;;;;;;;14.17;nan;99390.06;5042343;28;20507;-81
2023/05/16 10:11:43;;;;;;;18.60;12.65;;;;;;;14.16;nan;99396.34;5050335;28;20240;-80
2023/05/16 10:14:10;;;;;;;31.25;14.70;;;;;;;14.15;nan;99398.16;5050160;28;20225;-80
2023/05/16 10:16:36;;;;;;;24.38;12.90;;;;;;;14.14;nan;99388.53;5049384;28;20219;-80
2023/05/16 10:19:02;;;;;;;20.83;11.87;;;;;;;14.13;nan;99386.84;5045564;28;20225;-79
2023/05/16 10:21:29;;;;;;;22.20;13.45;;;;;;;14.07;nan;99390.00;5043444;28;20467;-79
2023/05/16 10:24:01;;;;;;;26.60;12.73;;;;;;;14.04;nan;99395.53;5041449;28;20282;-79
2023/05/16 10:26:26;;;;;;;16.48;11.25;;;;;;;14.00;nan;99394.09;5040989;28;20232;-79
2023/05/16 10:28:52;;;;;;;17.33;11.90;;;;;;;14.02;nan;99392.19;5028859;28;20217;-79
2023/05/16 10:31:18;;;;;;;14.77;9.70;;;;;;;14.04;nan;99399.97;5036998;28;20233;-80
2023/05/16 10:33:44;;;;;;;22.83;14.03;;;;;;;14.04;nan;99406.09;5039300;28;21035;-80
2023/05/16 10:36:11;;;;;;;21.15;14.85;;;;;;;14.08;nan;99396.94;5037575;28;20515;-79
2023/05/16 10:38:38;;;;;;;20.83;13.20;;;;;;;14.11;nan;99403.78;5034916;28;20613;-79
2023/05/16 10:41:04;;;;;;;20.05;11.88;;;;;;;14.13;nan;99399.22;5036092;28;20311;-79
2023/05/16 10:43:30;;;;;;;19.80;12.52;;;;;;;14.13;nan;99404.50;5036713;28;20270;-80
2023/05/16 10:46:01;;;;;;;20.57;12.50;;;;;;;14.14;nan;99406.19;5036892;28;20369;-80
2023/05/16 10:48:32;;;;;;;16.23;9.85;;;;;;;14.18;nan;99402.34;5039526;28;20333;-80
2023/05/16 10:50:57;;;;;;;15.65;9.02;;;;;;;14.13;nan;99405.34;5040365;28;20271;-80
2023/05/16 10:53:34;;;;;;;13.90;9.70;;;;;;;14.08;nan;99402.22;5035839;28;20225;-79
2023/05/16 10:56:02;;;;;;;14.05;9.27;;;;;;;14.03;nan;99409.69;5036172;28;20278;-79
2023/05/16 10:58:34;;;;;;;10.88;7.60;;;;;;;14.01;nan;99406.31;5036856;28;20232;-79
2023/05/16 11:01:15;;;;;;;13.75;9.52;;;;;;;13.98;nan;99405.75;5033849;28;20233;-79
2023/05/16 11:03:55;;;;;;;14.73;9.05;;;;;;;13.93;nan;99414.03;5039173;28;20304;-80
2023/05/16 11:06:24;;;;;;;15.43;10.55;;;;;;;13.92;nan;99413.19;5039098;28;20450;-80
2023/05/16 11:09:03;;;;;;;15.55;11.07;;;;;;;13.92;nan;99418.47;5041632;28;20240;-79
2023/05/16 11:11:37;;;;;;;14.35;9.95;;;;;;;13.94;nan;99416.56;5039759;28;20260;-79
2023/05/16 11:14:02;;;;;;;15.35;8.43;;;;;;;13.93;nan;99424.59;5040477;28;20274;-79
2023/05/16 11:16:28;;;;;;;9.27;6.37;;;;;;;13.96;nan;99416.44;5040352;28;20221;-79
2023/05/16 11:18:54;;;;;;;10.83;8.13;;;;;;;13.98;nan;99419.78;5044229;28;20215;-80
2023/05/16 11:21:20;;;;;;;8.10;6.37;;;;;;;14.04;nan;99426.38;5034996;28;20502;-80
2023/05/16 11:24:23;;;;;;;11.80;7.30;;;;;;;14.13;nan;99420.38;5040172;28;20568;-79
2023/05/16 11:26:49;;;;;;;10.32;6.97;;;;;;;14.13;nan;99410.63;5038486;28;20221;-80
2023/05/16 11:29:14;;;;;;;7.27;6.50;;;;;;;14.15;nan;99416.63;5043578;28;20235;-80
2023/05/16 11:31:40;;;;;;;12.67;6.60;;;;;;;14.23;nan;99426.56;5043046;28;20271;-80
2023/05/16 11:34:05;;;;;;;11.50;6.50;;;;;;;14.28;nan;99424.38;5040036;28;20224;-80
2023/05/16 11:36:31;;;;;;;11.23;6.53;;;;;;;14.29;nan;99423.44;5039422;28;20256;-80
2023/05/16 11:39:05;;;;;;;8.30;6.63;;;;;;;14.34;nan;99425.69;5038323;28;21314;-80